createdAt,value
2022-07-29T00:01:42.762Z,99102.50
2022-07-29T00:04:10.399Z,99099.81
2022-07-29T00:06:37.658Z,99106.31
2022-07-29T00:09:05.893Z,99106.97
2022-07-29T00:11:33.545Z,99096.47
2022-07-29T00:14:00.705Z,99105.06
2022-07-29T00:16:27.948Z,99109.31
2022-07-29T00:18:55.412Z,99108.34
2022-07-29T00:21:22.570Z,99098.19
2022-07-29T00:23:50.189Z,99107.94
2022-07-29T00:26:17.733Z,99099.94
2022-07-29T00:28:45.112Z,99111.84
2022-07-29T00:31:12.518Z,99105.16
2022-07-29T00:33:40.198Z,99103.78
2022-07-29T00:36:07.400Z,99102.75
2022-07-29T00:38:34.580Z,99105.59
2022-07-29T00:41:02.273Z,99108.44
2022-07-29T00:43:29.638Z,99110.53
2022-07-29T00:45:56.830Z,99104.63
2022-07-29T00:48:24.466Z,99104.38
2022-07-29T00:50:51.836Z,99112.34
2022-07-29T00:53:19.206Z,99099.78
2022-07-29T00:55:46.677Z,99111.88
2022-07-29T00:58:14.880Z,99102.88
2022-07-29T01:00:43.800Z,99106.81
2022-07-29T01:03:13.226Z,99107.69
2022-07-29T01:05:49.839Z,99097.25
2022-07-29T01:08:18.745Z,99101.13
2022-07-29T01:10:45.937Z,99095.75
2022-07-29T01:13:13.139Z,99093.53
2022-07-29T01:15:49.474Z,99094.00
2022-07-29T01:18:25.636Z,99093.19
2022-07-29T01:21:02.794Z,99091.59
2022-07-29T01:23:29.928Z,99102.13
2022-07-29T01:26:16.105Z,99098.41
2022-07-29T01:29:01.469Z,99094.06
2022-07-29T01:31:36.610Z,99096.53
2022-07-29T01:34:08.634Z,99093.09
2022-07-29T01:36:37.272Z,99087.84
2022-07-29T01:39:10.256Z,99091.38
2022-07-29T01:41:38.698Z,99093.94
2022-07-29T01:44:16.812Z,99089.25
2022-07-29T01:46:45.656Z,99092.34
2022-07-29T01:49:15.384Z,99088.72
2022-07-29T01:51:44.994Z,99084.75
2022-07-29T01:54:18.119Z,99083.25
2022-07-29T01:56:46.161Z,99091.78
2022-07-29T01:59:13.703Z,99081.31
2022-07-29T02:01:41.257Z,99087.06
2022-07-29T02:04:10.809Z,99086.47
2022-07-29T02:06:38.799Z,99085.28
2022-07-29T02:09:06.031Z,99088.16
2022-07-29T02:11:36.142Z,99090.53
2022-07-29T02:14:03.543Z,99082.84
2022-07-29T02:16:31.649Z,99083.56
2022-07-29T02:18:59.182Z,99078.41
2022-07-29T02:21:26.393Z,99081.44
2022-07-29T02:23:54.142Z,99077.63
2022-07-29T02:26:21.954Z,99081.16
2022-07-29T02:28:49.752Z,99075.81
2022-07-29T02:31:18.749Z,99071.13
2022-07-29T02:33:46.581Z,99080.47
2022-07-29T02:36:13.972Z,99075.34
2022-07-29T02:38:53.845Z,99077.81
2022-07-29T02:41:22.423Z,99076.75
2022-07-29T02:43:50.086Z,99076.34
2022-07-29T02:46:29.533Z,99076.22
2022-07-29T02:48:59.443Z,99070.06
2022-07-29T02:51:43.587Z,99074.25
2022-07-29T02:54:13.300Z,99071.56
2022-07-29T02:56:40.977Z,99073.59
2022-07-29T02:59:10.171Z,99074.62
2022-07-29T03:01:37.866Z,99076.31
2022-07-29T03:04:06.051Z,99077.75
2022-07-29T03:06:38.480Z,99078.03
2022-07-29T03:09:12.491Z,99071.25
2022-07-29T03:11:49.791Z,99079.31
2022-07-29T03:14:19.458Z,99071.09
2022-07-29T03:16:47.127Z,99077.66
2022-07-29T03:19:14.380Z,99074.62
2022-07-29T03:21:41.829Z,99070.81
2022-07-29T03:24:10.781Z,99075.16
2022-07-29T03:26:38.611Z,99073.31
2022-07-29T03:29:06.054Z,99069.91
2022-07-29T03:31:35.253Z,99079.88
2022-07-29T03:34:02.472Z,99080.63
2022-07-29T03:36:29.935Z,99071.37
2022-07-29T03:38:58.329Z,99080.28
2022-07-29T03:41:25.514Z,99082.09
2022-07-29T03:43:53.011Z,99082.56
2022-07-29T03:46:20.564Z,99079.47
2022-07-29T03:48:48.007Z,99082.75
2022-07-29T03:51:15.533Z,99075.38
2022-07-29T03:53:42.905Z,99074.06
2022-07-29T03:56:10.305Z,99073.56
2022-07-29T03:58:37.789Z,99076.06
2022-07-29T04:01:04.994Z,99070.25
2022-07-29T04:03:32.491Z,99084.91
2022-07-29T04:06:00.626Z,99094.16
2022-07-29T04:08:27.925Z,99086.53
2022-07-29T04:10:55.453Z,99090.19
2022-07-29T04:13:22.731Z,99084.56
2022-07-29T04:15:50.014Z,99088.53
2022-07-29T04:18:17.685Z,99094.50
2022-07-29T04:20:45.084Z,99094.34
2022-07-29T04:23:12.260Z,99093.41
2022-07-29T04:25:40.629Z,99089.88
2022-07-29T04:28:07.953Z,99088.03
2022-07-29T04:30:35.598Z,99082.50
2022-07-29T04:33:03.802Z,99088.16
2022-07-29T04:35:36.778Z,99094.78
2022-07-29T04:38:06.861Z,99085.94
2022-07-29T04:40:34.318Z,99088.28
2022-07-29T04:43:01.987Z,99091.31
2022-07-29T04:45:34.336Z,99092.63
2022-07-29T04:48:01.526Z,99091.63
2022-07-29T04:50:28.736Z,99092.59
2022-07-29T04:52:56.216Z,99085.25
2022-07-29T04:55:25.921Z,99090.75
2022-07-29T04:57:53.114Z,99090.31
2022-07-29T05:00:20.556Z,99081.28
2022-07-29T05:02:47.776Z,99084.75
2022-07-29T05:05:16.269Z,99087.16
2022-07-29T05:07:43.710Z,99095.47
2022-07-29T05:10:10.915Z,99091.19
2022-07-29T05:12:38.117Z,99098.25
2022-07-29T05:15:05.906Z,99089.56
2022-07-29T05:17:33.064Z,99090.88
2022-07-29T05:20:00.348Z,99090.34
2022-07-29T05:22:27.801Z,99095.44
2022-07-29T05:24:54.987Z,99089.38
2022-07-29T05:27:22.259Z,99099.59
2022-07-29T05:29:49.731Z,99095.97
2022-07-29T05:32:16.915Z,99093.47
2022-07-29T05:34:51.229Z,99088.19
2022-07-29T05:37:22.294Z,99094.97
2022-07-29T05:39:56.394Z,99093.03
2022-07-29T05:42:25.312Z,99097.12
2022-07-29T05:44:52.727Z,99098.53
2022-07-29T05:47:20.122Z,99086.97
2022-07-29T05:49:47.564Z,99102.97
2022-07-29T05:52:14.737Z,99113.12
2022-07-29T05:54:41.938Z,99107.63
2022-07-29T05:57:09.541Z,99104.44
2022-07-29T05:59:37.424Z,99110.16
2022-07-29T06:02:06.129Z,99112.53
2022-07-29T06:04:34.796Z,99103.78
2022-07-29T06:07:07.072Z,99109.56
2022-07-29T06:09:36.343Z,99105.22
2022-07-29T06:12:04.209Z,99112.09
2022-07-29T06:14:31.366Z,99094.72
2022-07-29T06:16:58.854Z,99102.03
2022-07-29T06:19:26.056Z,99104.31
2022-07-29T06:21:53.418Z,99110.63
2022-07-29T06:24:21.009Z,99106.44
2022-07-29T06:26:48.238Z,99109.87
2022-07-29T06:29:15.424Z,99116.25
2022-07-29T06:31:42.963Z,99113.59
2022-07-29T06:34:10.223Z,99120.16
2022-07-29T06:36:38.234Z,99124.84
2022-07-29T06:39:07.845Z,99118.09
2022-07-29T06:41:35.134Z,99127.78
2022-07-29T06:44:03.713Z,99130.50
2022-07-29T06:46:31.321Z,99141.44
2022-07-29T06:48:58.614Z,99127.41
2022-07-29T06:51:26.171Z,99135.13
2022-07-29T06:53:59.076Z,99123.19
2022-07-29T06:56:39.017Z,99132.37
2022-07-29T06:59:08.066Z,99132.31
2022-07-29T07:01:36.294Z,99133.50
2022-07-29T07:04:03.605Z,99120.47
2022-07-29T07:06:31.371Z,99115.59
2022-07-29T07:08:58.604Z,99115.31
2022-07-29T07:11:25.814Z,99116.37
2022-07-29T07:13:53.320Z,99120.94
2022-07-29T07:16:20.560Z,99120.66
2022-07-29T07:18:47.877Z,99114.41
2022-07-29T07:21:19.116Z,99116.97
2022-07-29T07:23:47.079Z,99115.75
2022-07-29T07:26:14.850Z,99119.66
2022-07-29T07:28:42.079Z,99122.59
2022-07-29T07:31:10.457Z,99119.09
2022-07-29T07:33:39.992Z,99116.31
2022-07-29T07:36:07.635Z,99116.34
2022-07-29T07:38:34.955Z,99114.56
2022-07-29T07:41:02.447Z,99116.25
2022-07-29T07:43:29.690Z,99109.63
2022-07-29T07:45:56.947Z,99110.94
2022-07-29T07:48:24.617Z,99114.44
2022-07-29T07:50:52.451Z,99111.09
2022-07-29T07:53:19.908Z,99113.53
2022-07-29T07:56:16.351Z,99112.78
2022-07-29T07:58:36.277Z,99111.75
2022-07-29T08:01:03.864Z,99106.12
2022-07-29T08:03:31.341Z,99105.03
2022-07-29T08:05:58.612Z,99116.78
2022-07-29T08:08:25.814Z,99109.00
2022-07-29T08:10:53.770Z,99106.28
2022-07-29T08:13:22.101Z,99105.41
2022-07-29T08:15:58.465Z,99111.84
2022-07-29T08:18:27.019Z,99111.16
2022-07-29T08:20:54.293Z,99103.13
2022-07-29T08:23:45.496Z,99101.75
2022-07-29T08:26:14.814Z,99097.47
2022-07-29T08:28:45.755Z,99108.94
2022-07-29T08:31:13.559Z,99105.09
2022-07-29T08:33:41.151Z,99103.56
2022-07-29T08:36:08.385Z,99106.25
2022-07-29T08:38:35.569Z,99102.25
2022-07-29T08:41:03.064Z,99099.56
2022-07-29T08:43:30.271Z,99103.38
2022-07-29T08:45:57.491Z,99098.28
2022-07-29T08:48:25.727Z,99107.69
2022-07-29T08:50:56.962Z,99103.00
2022-07-29T08:53:25.469Z,99108.38
2022-07-29T08:55:52.656Z,99101.25
2022-07-29T08:58:23.021Z,99095.41
2022-07-29T09:00:51.682Z,99097.47
2022-07-29T09:03:19.957Z,99096.78
2022-07-29T09:05:48.307Z,99091.16
2022-07-29T09:08:16.205Z,99092.16
2022-07-29T09:10:43.653Z,99102.00
2022-07-29T09:13:10.945Z,99103.97
2022-07-29T09:15:38.466Z,99099.19
2022-07-29T09:18:05.659Z,99091.94
2022-07-29T09:20:51.352Z,99095.28
2022-07-29T09:23:23.420Z,99089.47
2022-07-29T09:25:51.854Z,99090.88
2022-07-29T09:28:19.328Z,99089.03
2022-07-29T09:30:53.158Z,99084.78
2022-07-29T09:33:21.465Z,99074.62
2022-07-29T09:35:59.472Z,99078.22
2022-07-29T09:38:33.659Z,99071.41
2022-07-29T09:41:10.372Z,99075.69
2022-07-29T09:43:53.815Z,99064.97
2022-07-29T09:46:24.101Z,99062.53
2022-07-29T09:49:10.844Z,99067.56
2022-07-29T09:51:38.831Z,99056.94
2022-07-29T09:54:29.629Z,99056.34
2022-07-29T09:57:05.573Z,99056.28
2022-07-29T09:59:50.619Z,99060.16
2022-07-29T10:02:24.257Z,99059.19
2022-07-29T10:04:54.397Z,99055.44
2022-07-29T10:07:27.585Z,99055.63
2022-07-29T10:10:01.331Z,99051.13
2022-07-29T10:12:31.874Z,99052.06
2022-07-29T10:14:59.325Z,99050.09
2022-07-29T10:17:26.500Z,99055.16
2022-07-29T10:19:55.507Z,99063.09
2022-07-29T10:22:50.769Z,99043.94
2022-07-29T10:25:46.179Z,99054.38
2022-07-29T10:28:21.339Z,99058.22
2022-07-29T10:30:48.558Z,99050.88
2022-07-29T10:33:18.803Z,99042.69
2022-07-29T10:36:05.097Z,99031.81
2022-07-29T10:38:35.216Z,99040.84
2022-07-29T10:41:32.107Z,99036.66
2022-07-29T10:44:14.767Z,99031.06
2022-07-29T10:46:45.017Z,99019.19
2022-07-29T10:49:15.457Z,99023.88
2022-07-29T10:51:57.661Z,99024.41
2022-07-29T10:54:42.441Z,99017.41
2022-07-29T10:57:14.210Z,99018.87
2022-07-29T10:59:42.920Z,99016.13
2022-07-29T11:02:43.966Z,99022.97
2022-07-29T11:05:22.095Z,99016.78
2022-07-29T11:08:08.058Z,99026.88
2022-07-29T11:10:35.553Z,99009.16
2022-07-29T11:13:02.737Z,99002.31
2022-07-29T11:15:32.218Z,99001.25
2022-07-29T11:18:01.257Z,98996.16
2022-07-29T11:20:36.659Z,98999.16
2022-07-29T11:23:33.997Z,98999.88
2022-07-29T11:26:18.597Z,98994.69
2022-07-29T11:28:58.728Z,98999.50
2022-07-29T11:31:36.477Z,98995.75
2022-07-29T11:34:28.218Z,98994.31
2022-07-29T11:37:10.214Z,98991.12
2022-07-29T11:39:37.825Z,98982.19
2022-07-29T11:42:32.577Z,98985.59
2022-07-29T11:45:08.806Z,98978.00
2022-07-29T11:47:51.779Z,98967.66
2022-07-29T11:50:28.867Z,98963.19
2022-07-29T11:52:56.088Z,98964.81
2022-07-29T11:55:24.235Z,98954.91
2022-07-29T11:58:03.809Z,98958.88
2022-07-29T12:00:33.737Z,98963.50
2022-07-29T12:03:03.204Z,98961.31
2022-07-29T12:05:36.981Z,98968.59
2022-07-29T12:08:08.528Z,98965.03
2022-07-29T12:10:40.366Z,98972.69
2022-07-29T12:13:08.338Z,98966.28
2022-07-29T12:15:45.950Z,98955.00
2022-07-29T12:18:15.627Z,98952.62
2022-07-29T12:20:45.755Z,98955.78
2022-07-29T12:23:13.294Z,98941.69
2022-07-29T12:25:41.492Z,98954.06
2022-07-29T12:28:10.381Z,98946.63
2022-07-29T12:30:51.658Z,98942.78
2022-07-29T12:33:19.174Z,98945.66
2022-07-29T12:36:03.773Z,98938.03
2022-07-29T12:38:35.750Z,98917.75
2022-07-29T12:41:04.737Z,98918.09
2022-07-29T12:43:32.315Z,98920.34
2022-07-29T12:46:00.333Z,98917.97
2022-07-29T12:48:37.514Z,98910.44
2022-07-29T12:51:05.383Z,98908.53
2022-07-29T12:53:32.946Z,98900.72
2022-07-29T12:56:08.037Z,98903.47
2022-07-29T12:58:44.472Z,98900.12
2022-07-29T13:01:17.166Z,98909.63
2022-07-29T13:03:57.045Z,98907.09
2022-07-29T13:06:32.547Z,98906.53
2022-07-29T13:09:27.734Z,98911.87
2022-07-29T13:12:00.551Z,98900.50
2022-07-29T13:14:37.885Z,98913.16
2022-07-29T13:17:09.318Z,98907.72
2022-07-29T13:19:47.339Z,98891.56
2022-07-29T13:22:16.495Z,98889.72
2022-07-29T13:24:49.410Z,98878.91
2022-07-29T13:27:18.167Z,98890.69
2022-07-29T13:29:45.729Z,98878.34
2022-07-29T13:32:13.257Z,98876.22
2022-07-29T13:34:41.801Z,98870.97
2022-07-29T13:37:09.819Z,98871.44
2022-07-29T13:39:40.910Z,98866.75
2022-07-29T13:42:11.062Z,98870.53
2022-07-29T13:44:39.165Z,98874.06
2022-07-29T13:47:12.056Z,98875.66
2022-07-29T13:49:39.667Z,98877.91
2022-07-29T13:52:08.431Z,98868.56
2022-07-29T13:54:42.344Z,98865.06
2022-07-29T13:57:19.189Z,98867.41
2022-07-29T13:59:49.472Z,98861.66
2022-07-29T14:02:20.984Z,98860.13
2022-07-29T14:04:48.706Z,98854.00
2022-07-29T14:07:16.309Z,98844.88
2022-07-29T14:09:43.876Z,98852.44
2022-07-29T14:12:11.445Z,98853.34
2022-07-29T14:14:43.219Z,98847.88
2022-07-29T14:17:16.293Z,98838.06
2022-07-29T14:19:43.955Z,98841.84
2022-07-29T14:22:11.477Z,98834.91
2022-07-29T14:24:38.987Z,98835.34
2022-07-29T14:27:06.693Z,98833.22
2022-07-29T14:29:38.297Z,98831.28
2022-07-29T14:32:10.023Z,98834.56
2022-07-29T14:34:37.734Z,98831.47
2022-07-29T14:37:06.686Z,98831.66
2022-07-29T14:39:36.127Z,98822.00
2022-07-29T14:42:07.042Z,98818.94
2022-07-29T14:44:34.219Z,98816.72
2022-07-29T14:47:07.982Z,98826.66
2022-07-29T14:49:36.233Z,98819.47
2022-07-29T14:52:03.899Z,98815.56
2022-07-29T14:54:31.101Z,98821.22
2022-07-29T14:56:58.913Z,98807.16
2022-07-29T14:59:26.617Z,98809.22
2022-07-29T15:01:54.049Z,98801.88
2022-07-29T15:04:21.572Z,98799.84
2022-07-29T15:06:48.934Z,98798.06
2022-07-29T15:09:16.175Z,98805.22
2022-07-29T15:11:43.634Z,98788.19
2022-07-29T15:14:10.924Z,98793.94
2022-07-29T15:16:38.494Z,98791.72
2022-07-29T15:19:06.152Z,98781.78
2022-07-29T15:21:33.386Z,98778.50
2022-07-29T15:24:00.654Z,98779.16
2022-07-29T15:26:28.086Z,98782.34
2022-07-29T15:28:57.192Z,98779.84
2022-07-29T15:31:35.609Z,98775.44
2022-07-29T15:34:05.949Z,98776.44
2022-07-29T15:36:56.094Z,98777.28
2022-07-29T15:39:37.149Z,98784.22
2022-07-29T15:42:24.779Z,98773.72
2022-07-29T15:45:00.786Z,98769.97
2022-07-29T15:47:30.563Z,98773.91
2022-07-29T15:50:01.722Z,98767.88
2022-07-29T15:52:33.237Z,98774.16
2022-07-29T15:55:23.889Z,98769.31
2022-07-29T15:58:09.633Z,98776.31
2022-07-29T16:00:38.359Z,98759.03
2022-07-29T16:03:09.314Z,98764.06
2022-07-29T16:05:48.471Z,98766.44
2022-07-29T16:08:21.615Z,98769.81
2022-07-29T16:10:55.888Z,98756.41
2022-07-29T16:13:30.413Z,98756.81
2022-07-29T16:16:06.665Z,98760.44
2022-07-29T16:18:41.652Z,98757.31
2022-07-29T16:21:19.429Z,98763.22
2022-07-29T16:23:46.871Z,98759.81
2022-07-29T16:26:14.209Z,98755.78
2022-07-29T16:28:41.700Z,98753.38
2022-07-29T16:31:09.447Z,98763.59
2022-07-29T16:33:55.023Z,98759.16
2022-07-29T16:36:23.412Z,98754.22
2022-07-29T16:38:50.608Z,98750.78
2022-07-29T16:41:17.818Z,98757.97
2022-07-29T16:43:45.410Z,98746.78
2022-07-29T16:46:15.642Z,98753.41
2022-07-29T16:48:47.741Z,98753.94
2022-07-29T16:51:15.837Z,98750.56
2022-07-29T16:53:43.057Z,98753.94
2022-07-29T16:56:12.766Z,98747.34
2022-07-29T16:58:43.572Z,98754.44
2022-07-29T17:01:11.776Z,98748.34
2022-07-29T17:04:00.514Z,98748.50
2022-07-29T17:06:29.421Z,98741.41
2022-07-29T17:08:57.053Z,98751.91
2022-07-29T17:11:53.924Z,98750.03
2022-07-29T17:14:12.026Z,98748.53
2022-07-29T17:16:39.257Z,98756.75
2022-07-29T17:19:06.436Z,98755.78
2022-07-29T17:21:33.886Z,98759.84
2022-07-29T17:24:01.101Z,98757.94
2022-07-29T17:26:28.441Z,98755.94
2022-07-29T17:28:55.986Z,98756.47
2022-07-29T17:31:23.500Z,98754.06
2022-07-29T17:33:50.799Z,98746.75
2022-07-29T17:36:24.289Z,98748.97
2022-07-29T17:38:52.842Z,98745.22
2022-07-29T17:41:20.974Z,98747.22
2022-07-29T17:43:48.635Z,98747.41
2022-07-29T17:46:16.201Z,98740.78
2022-07-29T17:48:43.935Z,98744.16
2022-07-29T17:51:11.355Z,98747.50
2022-07-29T17:53:38.720Z,98759.34
2022-07-29T17:56:06.191Z,98759.72
2022-07-29T17:58:33.475Z,98751.72
2022-07-29T18:01:00.809Z,98759.34
2022-07-29T18:03:28.340Z,98763.03
2022-07-29T18:05:55.757Z,98765.38
2022-07-29T18:08:23.019Z,98767.13
2022-07-29T18:10:50.630Z,98767.97
2022-07-29T18:13:18.075Z,98766.22
2022-07-29T18:15:45.957Z,98764.25
2022-07-29T18:18:14.236Z,98761.84
2022-07-29T18:20:42.826Z,98769.28
2022-07-29T18:23:10.625Z,98767.03
2022-07-29T18:25:39.199Z,98774.66
2022-07-29T18:28:06.614Z,98762.59
2022-07-29T18:30:36.765Z,98771.88
2022-07-29T18:33:20.744Z,98777.06
2022-07-29T18:35:52.490Z,98773.66
2022-07-29T18:38:39.802Z,98778.38
2022-07-29T18:41:09.037Z,98789.75
2022-07-29T18:43:56.502Z,98783.50
2022-07-29T18:46:23.891Z,98786.06
2022-07-29T18:48:53.372Z,98789.81
2022-07-29T18:51:21.384Z,98784.59
2022-07-29T18:53:48.717Z,98791.94
2022-07-29T18:56:24.298Z,98790.75
2022-07-29T18:59:00.130Z,98784.28
2022-07-29T19:01:31.734Z,98787.50
2022-07-29T19:04:00.406Z,98789.69
2022-07-29T19:06:27.974Z,98789.06
2022-07-29T19:08:57.838Z,98789.78
2022-07-29T19:11:25.527Z,98796.56
2022-07-29T19:13:53.081Z,98791.16
2022-07-29T19:16:26.205Z,98798.50
2022-07-29T19:18:54.965Z,98800.16
2022-07-29T19:21:24.291Z,98810.31
2022-07-29T19:24:01.501Z,98802.31
2022-07-29T19:26:36.716Z,98810.63
2022-07-29T19:29:04.495Z,98798.97
2022-07-29T19:31:31.934Z,98796.75
2022-07-29T19:33:59.487Z,98796.81
2022-07-29T19:36:27.526Z,98803.72
2022-07-29T19:38:54.745Z,98805.31
2022-07-29T19:41:22.393Z,98807.97
2022-07-29T19:43:52.869Z,98802.50
2022-07-29T19:46:21.293Z,98796.16
2022-07-29T19:48:49.036Z,98794.47
2022-07-29T19:51:16.798Z,98800.53
2022-07-29T19:53:44.139Z,98796.75
2022-07-29T19:56:11.828Z,98791.78
2022-07-29T19:58:40.799Z,98791.84
2022-07-29T20:01:10.206Z,98792.38
2022-07-29T20:03:40.518Z,98794.44
2022-07-29T20:06:09.262Z,98794.00
2022-07-29T20:08:46.151Z,98789.03
2022-07-29T20:11:13.723Z,98783.91
2022-07-29T20:13:40.920Z,98789.03
2022-07-29T20:16:08.846Z,98782.63
2022-07-29T20:18:36.560Z,98784.19
2022-07-29T20:21:04.806Z,98787.63
2022-07-29T20:23:33.487Z,98785.44
2022-07-29T20:26:01.244Z,98790.00
2022-07-29T20:28:28.504Z,98790.78
2022-07-29T20:30:55.725Z,98795.03
2022-07-29T20:33:23.702Z,98795.31
2022-07-29T20:35:51.017Z,98790.88
2022-07-29T20:38:18.522Z,98797.72
2022-07-29T20:40:46.172Z,98798.47
2022-07-29T20:43:13.351Z,98802.91
2022-07-29T20:45:40.534Z,98817.09
2022-07-29T20:48:08.178Z,98818.13
2022-07-29T20:50:35.965Z,98815.38
2022-07-29T20:53:03.246Z,98816.19
2022-07-29T20:55:32.171Z,98818.81
2022-07-29T20:58:01.993Z,98826.53
2022-07-29T21:00:29.276Z,98829.09
2022-07-29T21:02:57.367Z,98825.47
2022-07-29T21:05:25.699Z,98831.50
2022-07-29T21:07:57.800Z,98832.28
2022-07-29T21:10:29.422Z,98832.00
2022-07-29T21:12:56.796Z,98831.28
2022-07-29T21:15:24.393Z,98835.69
2022-07-29T21:17:59.700Z,98838.91
2022-07-29T21:20:27.220Z,98825.25
2022-07-29T21:22:55.708Z,98831.41
2022-07-29T21:25:23.303Z,98845.00
2022-07-29T21:28:09.744Z,98842.84
2022-07-29T21:30:37.511Z,98847.66
2022-07-29T21:33:04.721Z,98851.28
2022-07-29T21:36:15.031Z,98859.16
2022-07-29T21:38:19.838Z,98860.66
2022-07-29T21:40:47.947Z,98859.03
2022-07-29T21:43:15.352Z,98857.31
2022-07-29T21:45:47.783Z,98859.59
2022-07-29T21:48:15.169Z,98863.03
2022-07-29T21:50:43.112Z,98860.97
2022-07-29T21:53:10.344Z,98861.19
2022-07-29T21:55:41.119Z,98854.97
2022-07-29T21:58:08.769Z,98855.66
2022-07-29T22:00:36.276Z,98850.75
2022-07-29T22:03:04.355Z,98856.06
2022-07-29T22:05:31.740Z,98864.03
2022-07-29T22:07:59.268Z,98859.16
2022-07-29T22:10:27.860Z,98865.56
2022-07-29T22:12:55.596Z,98865.69
2022-07-29T22:15:23.953Z,98864.94
2022-07-29T22:17:51.417Z,98876.12
2022-07-29T22:20:18.931Z,98866.09
2022-07-29T22:22:48.601Z,98860.84
2022-07-29T22:25:16.555Z,98868.53
2022-07-29T22:27:43.831Z,98875.19
2022-07-29T22:30:11.371Z,98875.69
2022-07-29T22:32:39.033Z,98872.66
2022-07-29T22:35:06.725Z,98874.22
2022-07-29T22:37:37.066Z,98877.59
2022-07-29T22:40:04.894Z,98881.72
2022-07-29T22:42:32.431Z,98875.16
2022-07-29T22:44:59.696Z,98867.66
2022-07-29T22:47:46.327Z,98861.53
2022-07-29T22:50:14.808Z,98870.28
2022-07-29T22:52:42.351Z,98876.00
2022-07-29T22:55:09.837Z,98877.34
2022-07-29T22:57:38.967Z,98880.34
2022-07-29T23:00:06.913Z,98883.03
2022-07-29T23:02:34.034Z,98877.91
2022-07-29T23:05:01.253Z,98876.97
2022-07-29T23:07:28.941Z,98871.94
2022-07-29T23:09:56.767Z,98853.31
2022-07-29T23:12:23.984Z,98861.75
2022-07-29T23:14:51.721Z,98862.03
2022-07-29T23:17:18.974Z,98865.41
2022-07-29T23:19:46.253Z,98866.66
2022-07-29T23:22:13.887Z,98864.66
2022-07-29T23:24:41.338Z,98856.03
2022-07-29T23:27:09.351Z,98849.81
2022-07-29T23:29:36.999Z,98839.16
2022-07-29T23:32:04.673Z,98847.41
2022-07-29T23:34:32.008Z,98842.16
2022-07-29T23:36:59.737Z,98838.09
2022-07-29T23:39:27.042Z,98836.00
2022-07-29T23:41:54.264Z,98838.91
2022-07-29T23:44:21.770Z,98829.88
2022-07-29T23:46:49.044Z,98833.22
2022-07-29T23:49:16.858Z,98825.03
2022-07-29T23:51:44.846Z,98827.59
2022-07-29T23:54:12.055Z,98822.66
2022-07-29T23:56:39.306Z,98812.47
2022-07-29T23:59:06.999Z,98816.28
